sensor_id;sensor_type;location;lat;lon;timestamp;temperature;humidity
55151;DHT22;41041;43.162;20.538;2023-11-18T03:14:01;153.60;2252.80
55151;DHT22;41041;43.162;20.538;2023-11-18T03:16:30;128.80;2252.80
55151;DHT22;41041;43.162;20.538;2023-11-18T03:18:55;128.70;2252.80
55151;DHT22;41041;43.162;20.538;2023-11-18T03:21:23;128.80;2252.80
55151;DHT22;41041;43.162;20.538;2023-11-18T03:23:49;128.70;2252.80
55151;DHT22;41041;43.162;20.538;2023-11-18T03:26:15;128.70;2252.80
55151;DHT22;41041;43.162;20.538;2023-11-18T03:28:40;128.60;2252.80
55151;DHT22;41041;43.162;20.538;2023-11-18T03:31:07;128.70;2252.80
55151;DHT22;41041;43.162;20.538;2023-11-18T03:33:33;128.60;2252.80
55151;DHT22;41041;43.162;20.538;2023-11-18T03:35:59;128.80;2252.80
55151;DHT22;41041;43.162;20.538;2023-11-18T05:29:33;128.10;2252.80
55151;DHT22;41041;43.162;20.538;2023-11-18T05:31:59;103.20;2227.20
55151;DHT22;41041;43.162;20.538;2023-11-18T05:34:25;103.10;2227.20
55151;DHT22;41041;43.162;20.538;2023-11-18T05:36:51;103.00;2227.20
55151;DHT22;41041;43.162;20.538;2023-11-18T05:39:20;103.00;2227.20
55151;DHT22;41041;43.162;20.538;2023-11-18T05:41:49;103.00;2227.20
55151;DHT22;41041;43.162;20.538;2023-11-18T05:44:16;103.00;2227.20
55151;DHT22;41041;43.162;20.538;2023-11-18T05:46:48;103.00;2227.20
55151;DHT22;41041;43.162;20.538;2023-11-18T05:49:17;102.90;2227.20
55151;DHT22;41041;43.162;20.538;2023-11-18T05:51:43;103.00;2227.20
55151;DHT22;41041;43.162;20.538;2023-11-18T06:08:49;128.20;2252.80
55151;DHT22;41041;43.162;20.538;2023-11-18T06:11:15;103.20;2227.20
55151;DHT22;41041;43.162;20.538;2023-11-18T06:13:43;103.20;2227.20
55151;DHT22;41041;43.162;20.538;2023-11-18T06:16:16;103.20;2227.20
55151;DHT22;41041;43.162;20.538;2023-11-18T06:18:44;103.10;2227.20
55151;DHT22;41041;43.162;20.538;2023-11-18T06:21:15;103.10;2227.20
55151;DHT22;41041;43.162;20.538;2023-11-18T06:23:42;128.10;2252.80
55151;DHT22;41041;43.162;20.538;2023-11-18T06:26:08;128.00;2252.80
55151;DHT22;41041;43.162;20.538;2023-11-18T06:28:40;128.00;2252.80
55151;DHT22;41041;43.162;20.538;2023-11-18T06:31:07;128.00;2252.80
55151;DHT22;41041;43.162;20.538;2023-11-18T06:33:46;128.10;2252.80
55151;DHT22;41041;43.162;20.538;2023-11-18T06:38:52;128.20;2252.80
55151;DHT22;41041;43.162;20.538;2023-11-18T06:41:21;128.20;2252.80
55151;DHT22;41041;43.162;20.538;2023-11-18T06:43:49;128.20;2252.80
55151;DHT22;41041;43.162;20.538;2023-11-18T06:46:22;128.20;2252.80
55151;DHT22;41041;43.162;20.538;2023-11-18T06:48:49;128.20;2252.80
55151;DHT22;41041;43.162;20.538;2023-11-18T06:51:15;128.30;2252.80
55151;DHT22;41041;43.162;20.538;2023-11-18T06:53:44;128.40;2252.80
55151;DHT22;41041;43.162;20.538;2023-11-18T06:56:10;128.40;2252.80
55151;DHT22;41041;43.162;20.538;2023-11-18T06:58:42;128.50;2252.80
55151;DHT22;41041;43.162;20.538;2023-11-18T07:01:09;128.60;2252.80
55151;DHT22;41041;43.162;20.538;2023-11-18T07:03:35;128.60;2252.80
55151;DHT22;41041;43.162;20.538;2023-11-18T07:06:04;128.70;2252.80
55151;DHT22;41041;43.162;20.538;2023-11-18T07:08:31;128.70;2252.80
55151;DHT22;41041;43.162;20.538;2023-11-18T07:10:58;128.70;2252.80
55151;DHT22;41041;43.162;20.538;2023-11-18T07:13:24;128.70;2252.80
55151;DHT22;41041;43.162;20.538;2023-11-18T07:15:50;128.70;2252.80
55151;DHT22;41041;43.162;20.538;2023-11-18T07:18:17;128.80;2252.80
55151;DHT22;41041;43.162;20.538;2023-11-18T07:20:43;128.70;2252.80
55151;DHT22;41041;43.162;20.538;2023-11-18T07:23:09;128.70;2252.80
55151;DHT22;41041;43.162;20.538;2023-11-18T07:25:35;128.80;2252.80
55151;DHT22;41041;43.162;20.538;2023-11-18T07:28:01;128.60;2252.80
55151;DHT22;41041;43.162;20.538;2023-11-18T07:30:28;128.50;2252.80
55151;DHT22;41041;43.162;20.538;2023-11-18T07:36:24;128.30;2252.80
55151;DHT22;41041;43.162;20.538;2023-11-18T07:46:28;128.10;2252.80
55151;DHT22;41041;43.162;20.538;2023-11-18T08:01:09;128.90;2252.80
55151;DHT22;41041;43.162;20.538;2023-11-18T08:03:36;128.40;2252.80
55151;DHT22;41041;43.162;20.538;2023-11-18T08:06:03;128.60;2252.80
55151;DHT22;41041;43.162;20.538;2023-11-18T08:19:46;128.70;2252.80
55151;DHT22;41041;43.162;20.538;2023-11-18T08:22:12;128.60;2252.80
55151;DHT22;41041;43.162;20.538;2023-11-18T08:24:39;128.60;2252.80
55151;DHT22;41041;43.162;20.538;2023-11-18T08:27:05;128.70;2252.80
55151;DHT22;41041;43.162;20.538;2023-11-18T08:29:32;128.60;2252.80
55151;DHT22;41041;43.162;20.538;2023-11-18T08:35:21;128.60;2252.80
55151;DHT22;41041;43.162;20.538;2023-11-18T08:37:47;128.60;2252.80
55151;DHT22;41041;43.162;20.538;2023-11-18T08:40:14;128.60;2252.80
55151;DHT22;41041;43.162;20.538;2023-11-18T08:42:47;128.70;2252.80
55151;DHT22;41041;43.162;20.538;2023-11-18T08:45:38;128.80;2252.80
55151;DHT22;41041;43.162;20.538;2023-11-18T08:48:05;128.60;2252.80
55151;DHT22;41041;43.162;20.538;2023-11-18T08:50:35;128.60;2252.80
55151;DHT22;41041;43.162;20.538;2023-11-18T08:53:00;128.60;2252.80
55151;DHT22;41041;43.162;20.538;2023-11-18T08:55:33;128.60;2252.80
55151;DHT22;41041;43.162;20.538;2023-11-18T08:58:30;128.80;2252.80
55151;DHT22;41041;43.162;20.538;2023-11-18T09:24:20;153.90;2252.80
55151;DHT22;41041;43.162;20.538;2023-11-18T09:26:50;153.70;2252.80
55151;DHT22;41041;43.162;20.538;2023-11-18T09:29:16;153.70;2252.80
55151;DHT22;41041;43.162;20.538;2023-11-18T09:31:47;153.90;2252.80
55151;DHT22;41041;43.162;20.538;2023-11-18T09:34:15;154.30;2252.80
55151;DHT22;41041;43.162;20.538;2023-11-18T09:36:45;154.00;2252.80
55151;DHT22;41041;43.162;20.538;2023-11-18T09:39:13;154.10;2252.80
55151;DHT22;41041;43.162;20.538;2023-11-18T09:41:59;154.10;2252.80
55151;DHT22;41041;43.162;20.538;2023-11-18T09:48:16;153.90;2252.80
55151;DHT22;41041;43.162;20.538;2023-11-18T09:50:47;154.00;2252.80
55151;DHT22;41041;43.162;20.538;2023-11-18T09:53:15;154.10;2252.80
55151;DHT22;41041;43.162;20.538;2023-11-18T09:56:04;154.10;2252.80
55151;DHT22;41041;43.162;20.538;2023-11-18T09:58:45;154.10;2252.80
55151;DHT22;41041;43.162;20.538;2023-11-18T10:01:15;154.20;2252.80
55151;DHT22;41041;43.162;20.538;2023-11-18T10:07:06;154.30;2252.80
55151;DHT22;41041;43.162;20.538;2023-11-18T10:09:36;154.30;2252.80
55151;DHT22;41041;43.162;20.538;2023-11-18T10:12:04;154.40;2252.80
55151;DHT22;41041;43.162;20.538;2023-11-18T10:17:55;154.30;2252.80
55151;DHT22;41041;43.162;20.538;2023-11-18T10:24:03;154.20;2252.80
55151;DHT22;41041;43.162;20.538;2023-11-18T11:21:08;179.90;2252.80
55151;DHT22;41041;43.162;20.538;2023-11-18T11:24:11;179.70;2252.80
55151;DHT22;41041;43.162;20.538;2023-11-18T11:30:06;179.30;2252.80
55151;DHT22;41041;43.162;20.538;2023-11-18T11:33:03;179.20;2252.80
55151;DHT22;41041;43.162;20.538;2023-11-18T11:39:07;179.50;2252.80
55151;DHT22;41041;43.162;20.538;2023-11-18T11:41:43;179.40;2252.80
55151;DHT22;41041;43.162;20.538;2023-11-18T12:06:06;179.80;2252.80
55151;DHT22;41041;43.162;20.538;2023-11-18T12:29:02;179.50;2252.80
55151;DHT22;41041;43.162;20.538;2023-11-18T13:33:23;180.00;2252.80
55151;DHT22;41041;43.162;20.538;2023-11-18T13:35:49;179.80;2252.80
55151;DHT22;41041;43.162;20.538;2023-11-18T13:38:15;179.80;2252.80
55151;DHT22;41041;43.162;20.538;2023-11-18T13:40:44;179.90;2252.80
55151;DHT22;41041;43.162;20.538;2023-11-18T13:43:10;179.90;2252.80
55151;DHT22;41041;43.162;20.538;2023-11-18T13:45:36;179.90;2252.80
55151;DHT22;41041;43.162;20.538;2023-11-18T13:48:02;179.90;2252.80
55151;DHT22;41041;43.162;20.538;2023-11-18T14:08:24;180.10;2252.80
55151;DHT22;41041;43.162;20.538;2023-11-18T14:10:50;179.80;2252.80
55151;DHT22;41041;43.162;20.538;2023-11-18T14:16:40;179.70;2252.80
55151;DHT22;41041;43.162;20.538;2023-11-18T14:19:06;179.60;2252.80
55151;DHT22;41041;43.162;20.538;2023-11-18T16:00:23;154.30;2252.80
55151;DHT22;41041;43.162;20.538;2023-11-18T16:02:58;154.00;2252.80
55151;DHT22;41041;43.162;20.538;2023-11-18T16:05:26;154.00;2252.80
55151;DHT22;41041;43.162;20.538;2023-11-18T16:07:53;153.90;2252.80
55151;DHT22;41041;43.162;20.538;2023-11-18T16:10:24;153.90;2252.80
55151;DHT22;41041;43.162;20.538;2023-11-18T16:12:54;153.90;2252.80
55151;DHT22;41041;43.162;20.538;2023-11-18T16:15:24;153.90;2252.80
55151;DHT22;41041;43.162;20.538;2023-11-18T16:17:52;154.00;2252.80
55151;DHT22;41041;43.162;20.538;2023-11-18T16:20:23;153.90;2252.80
55151;DHT22;41041;43.162;20.538;2023-11-18T17:15:11;154.10;2252.80
55151;DHT22;41041;43.162;20.538;2023-11-18T17:17:47;153.90;2252.80
55151;DHT22;41041;43.162;20.538;2023-11-18T17:20:14;153.80;2252.80
55151;DHT22;41041;43.162;20.538;2023-11-18T17:22:42;153.70;2252.80
55151;DHT22;41041;43.162;20.538;2023-11-18T17:25:10;153.80;2252.80
55151;DHT22;41041;43.162;20.538;2023-11-18T17:27:38;153.80;2252.80
55151;DHT22;41041;43.162;20.538;2023-11-18T18:00:07;154.00;2252.80
55151;DHT22;41041;43.162;20.538;2023-11-18T18:02:38;153.70;2252.80
55151;DHT22;41041;43.162;20.538;2023-11-18T18:05:06;153.60;2252.80
55151;DHT22;41041;43.162;20.538;2023-11-18T18:07:32;128.90;2252.80
55151;DHT22;41041;43.162;20.538;2023-11-18T19:23:55;153.60;2252.80
55151;DHT22;41041;43.162;20.538;2023-11-18T19:26:21;128.80;2252.80
55151;DHT22;41041;43.162;20.538;2023-11-18T19:28:47;128.70;2252.80
55151;DHT22;41041;43.162;20.538;2023-11-18T19:31:13;128.70;2252.80
55151;DHT22;41041;43.162;20.538;2023-11-18T19:33:39;128.60;2252.80
55151;DHT22;41041;43.162;20.538;2023-11-18T19:46:17;153.70;2252.80
55151;DHT22;41041;43.162;20.538;2023-11-18T20:06:07;128.90;2252.80
55151;DHT22;41041;43.162;20.538;2023-11-18T20:08:33;128.70;2252.80
55151;DHT22;41041;43.162;20.538;2023-11-18T20:10:59;128.70;2252.80
55151;DHT22;41041;43.162;20.538;2023-11-18T20:13:25;128.70;2252.80
55151;DHT22;41041;43.162;20.538;2023-11-18T20:15:50;128.60;2252.80
55151;DHT22;41041;43.162;20.538;2023-11-18T20:18:19;128.50;2252.80
55151;DHT22;41041;43.162;20.538;2023-11-18T20:20:45;128.50;2252.80
55151;DHT22;41041;43.162;20.538;2023-11-18T20:23:11;128.50;2252.80
55151;DHT22;41041;43.162;20.538;2023-11-18T21:57:58;128.80;2252.80
55151;DHT22;41041;43.162;20.538;2023-11-18T22:00:24;128.50;2252.80
55151;DHT22;41041;43.162;20.538;2023-11-18T22:02:49;128.50;2252.80
55151;DHT22;41041;43.162;20.538;2023-11-18T22:05:15;128.60;2252.80
55151;DHT22;41041;43.162;20.538;2023-11-18T22:07:49;128.50;2252.80
55151;DHT22;41041;43.162;20.538;2023-11-18T22:10:15;128.40;2252.80
55151;DHT22;41041;43.162;20.538;2023-11-18T22:12:44;128.40;2252.80
55151;DHT22;41041;43.162;20.538;2023-11-18T22:15:10;128.50;2252.80
55151;DHT22;41041;43.162;20.538;2023-11-18T22:17:43;128.50;2252.80
55151;DHT22;41041;43.162;20.538;2023-11-18T22:20:09;128.40;2252.80
55151;DHT22;41041;43.162;20.538;2023-11-18T22:22:38;128.40;2252.80
55151;DHT22;41041;43.162;20.538;2023-11-18T22:25:04;128.40;2252.80
55151;DHT22;41041;43.162;20.538;2023-11-18T22:27:32;128.50;2252.80
55151;DHT22;41041;43.162;20.538;2023-11-18T22:30:02;128.50;2252.80
55151;DHT22;41041;43.162;20.538;2023-11-18T22:32:31;128.50;2252.80
55151;DHT22;41041;43.162;20.538;2023-11-18T22:34:58;128.50;2252.80
55151;DHT22;41041;43.162;20.538;2023-11-18T22:37:23;128.50;2252.80
55151;DHT22;41041;43.162;20.538;2023-11-18T22:39:49;128.50;2252.80
55151;DHT22;41041;43.162;20.538;2023-11-18T22:42:15;128.40;2252.80
55151;DHT22;41041;43.162;20.538;2023-11-18T22:44:44;128.40;2252.80
55151;DHT22;41041;43.162;20.538;2023-11-18T22:47:11;128.50;2252.80
55151;DHT22;41041;43.162;20.538;2023-11-18T22:49:37;128.50;2252.80
55151;DHT22;41041;43.162;20.538;2023-11-18T22:52:07;128.60;2252.80
55151;DHT22;41041;43.162;20.538;2023-11-18T22:54:32;128.50;2252.80
55151;DHT22;41041;43.162;20.538;2023-11-18T22:57:00;128.40;2252.80
55151;DHT22;41041;43.162;20.538;2023-11-18T22:59:27;128.40;2252.80
55151;DHT22;41041;43.162;20.538;2023-11-18T23:01:52;128.50;2252.80
55151;DHT22;41041;43.162;20.538;2023-11-18T23:04:18;128.50;2252.80
55151;DHT22;41041;43.162;20.538;2023-11-18T23:06:44;128.40;2252.80
55151;DHT22;41041;43.162;20.538;2023-11-18T23:09:20;128.40;2252.80
55151;DHT22;41041;43.162;20.538;2023-11-18T23:11:47;128.30;2252.80
55151;DHT22;41041;43.162;20.538;2023-11-18T23:14:17;128.30;2252.80
55151;DHT22;41041;43.162;20.538;2023-11-18T23:16:43;128.30;2252.80
55151;DHT22;41041;43.162;20.538;2023-11-18T23:19:09;128.30;2252.80
55151;DHT22;41041;43.162;20.538;2023-11-18T23:21:36;128.30;2252.80
55151;DHT22;41041;43.162;20.538;2023-11-18T23:24:04;128.30;2252.80
55151;DHT22;41041;43.162;20.538;2023-11-18T23:26:30;128.30;2252.80
55151;DHT22;41041;43.162;20.538;2023-11-18T23:28:56;128.30;2252.80
55151;DHT22;41041;43.162;20.538;2023-11-18T23:31:22;128.30;2252.80
